sensor_id;sensor_type;location;lat;lon;timestamp;temperature;humidity
2893;DHT22;1456;51.840;12.184;2023-09-12T00:00:11;18.60;99.90
2893;DHT22;1456;51.840;12.184;2023-09-12T00:02:37;18.50;99.90
2893;DHT22;1456;51.840;12.184;2023-09-12T00:05:03;18.60;99.90
2893;DHT22;1456;51.840;12.184;2023-09-12T00:07:30;18.60;99.90
2893;DHT22;1456;51.840;12.184;2023-09-12T00:09:59;18.60;99.90
2893;DHT22;1456;51.840;12.184;2023-09-12T00:12:25;18.60;99.90
2893;DHT22;1456;51.840;12.184;2023-09-12T00:14:52;18.60;99.90
2893;DHT22;1456;51.840;12.184;2023-09-12T00:17:18;18.50;99.90
2893;DHT22;1456;51.840;12.184;2023-09-12T00:19:43;18.40;99.90
2893;DHT22;1456;51.840;12.184;2023-09-12T00:22:15;18.30;99.90
2893;DHT22;1456;51.840;12.184;2023-09-12T00:24:41;18.30;99.90
2893;DHT22;1456;51.840;12.184;2023-09-12T00:27:08;18.30;99.90
2893;DHT22;1456;51.840;12.184;2023-09-12T00:29:33;18.30;99.90
2893;DHT22;1456;51.840;12.184;2023-09-12T00:31:59;18.30;99.90
2893;DHT22;1456;51.840;12.184;2023-09-12T00:34:33;18.30;99.90
2893;DHT22;1456;51.840;12.184;2023-09-12T00:37:01;18.20;99.90
2893;DHT22;1456;51.840;12.184;2023-09-12T00:39:27;18.10;99.90
2893;DHT22;1456;51.840;12.184;2023-09-12T00:41:59;18.00;99.90
2893;DHT22;1456;51.840;12.184;2023-09-12T00:44:24;18.00;99.90
2893;DHT22;1456;51.840;12.184;2023-09-12T00:46:52;17.90;99.90
2893;DHT22;1456;51.840;12.184;2023-09-12T00:49:19;17.90;99.90
2893;DHT22;1456;51.840;12.184;2023-09-12T00:51:48;17.90;99.90
2893;DHT22;1456;51.840;12.184;2023-09-12T00:54:20;17.90;99.90
2893;DHT22;1456;51.840;12.184;2023-09-12T00:56:49;17.90;99.90
2893;DHT22;1456;51.840;12.184;2023-09-12T00:59:20;17.90;99.90
2893;DHT22;1456;51.840;12.184;2023-09-12T01:01:52;17.90;99.90
2893;DHT22;1456;51.840;12.184;2023-09-12T01:04:17;17.90;99.90
2893;DHT22;1456;51.840;12.184;2023-09-12T01:06:44;17.90;99.90
2893;DHT22;1456;51.840;12.184;2023-09-12T01:09:12;18.00;99.90
2893;DHT22;1456;51.840;12.184;2023-09-12T01:11:40;18.00;99.90
2893;DHT22;1456;51.840;12.184;2023-09-12T01:14:06;18.00;99.90
2893;DHT22;1456;51.840;12.184;2023-09-12T01:16:34;18.00;99.90
2893;DHT22;1456;51.840;12.184;2023-09-12T01:19:00;18.00;99.90
2893;DHT22;1456;51.840;12.184;2023-09-12T01:21:38;18.00;99.90
2893;DHT22;1456;51.840;12.184;2023-09-12T01:27:28;18.00;99.90
2893;DHT22;1456;51.840;12.184;2023-09-12T01:30:02;17.90;99.90
2893;DHT22;1456;51.840;12.184;2023-09-12T01:32:29;17.80;99.90
2893;DHT22;1456;51.840;12.184;2023-09-12T01:34:55;17.70;99.90
2893;DHT22;1456;51.840;12.184;2023-09-12T01:37:22;17.50;99.90
2893;DHT22;1456;51.840;12.184;2023-09-12T01:39:49;17.50;99.90
2893;DHT22;1456;51.840;12.184;2023-09-12T01:42:20;17.50;99.90
2893;DHT22;1456;51.840;12.184;2023-09-12T01:44:56;17.50;99.90
2893;DHT22;1456;51.840;12.184;2023-09-12T01:47:26;17.50;99.90
2893;DHT22;1456;51.840;12.184;2023-09-12T01:49:55;17.50;99.90
2893;DHT22;1456;51.840;12.184;2023-09-12T01:52:24;17.50;99.90
2893;DHT22;1456;51.840;12.184;2023-09-12T01:54:52;17.60;99.90
2893;DHT22;1456;51.840;12.184;2023-09-12T01:57:20;17.60;99.90
2893;DHT22;1456;51.840;12.184;2023-09-12T01:59:48;17.50;99.90
2893;DHT22;1456;51.840;12.184;2023-09-12T02:02:16;17.40;99.90
2893;DHT22;1456;51.840;12.184;2023-09-12T02:04:49;17.30;99.90
2893;DHT22;1456;51.840;12.184;2023-09-12T02:07:16;17.30;99.90
2893;DHT22;1456;51.840;12.184;2023-09-12T02:09:49;17.40;99.90
2893;DHT22;1456;51.840;12.184;2023-09-12T02:12:15;17.40;99.90
2893;DHT22;1456;51.840;12.184;2023-09-12T02:14:46;17.40;99.90
2893;DHT22;1456;51.840;12.184;2023-09-12T02:17:12;17.40;99.90
2893;DHT22;1456;51.840;12.184;2023-09-12T02:19:42;17.40;99.90
2893;DHT22;1456;51.840;12.184;2023-09-12T02:22:09;17.50;99.90
2893;DHT22;1456;51.840;12.184;2023-09-12T02:24:38;17.50;99.90
2893;DHT22;1456;51.840;12.184;2023-09-12T02:27:03;17.50;99.90
2893;DHT22;1456;51.840;12.184;2023-09-12T02:29:29;17.40;99.90
2893;DHT22;1456;51.840;12.184;2023-09-12T02:31:56;17.40;99.90
2893;DHT22;1456;51.840;12.184;2023-09-12T02:34:23;17.40;99.90
2893;DHT22;1456;51.840;12.184;2023-09-12T02:36:48;17.40;99.90
2893;DHT22;1456;51.840;12.184;2023-09-12T02:39:14;17.40;99.90
2893;DHT22;1456;51.840;12.184;2023-09-12T02:41:41;17.40;99.90
2893;DHT22;1456;51.840;12.184;2023-09-12T02:44:10;17.40;99.90
2893;DHT22;1456;51.840;12.184;2023-09-12T02:46:40;17.50;99.90
2893;DHT22;1456;51.840;12.184;2023-09-12T02:49:10;17.40;99.90
2893;DHT22;1456;51.840;12.184;2023-09-12T02:51:45;17.40;99.90
2893;DHT22;1456;51.840;12.184;2023-09-12T02:54:19;17.40;99.90
2893;DHT22;1456;51.840;12.184;2023-09-12T02:56:46;17.30;99.90
2893;DHT22;1456;51.840;12.184;2023-09-12T02:59:11;17.30;99.90
2893;DHT22;1456;51.840;12.184;2023-09-12T03:01:42;17.30;99.90
2893;DHT22;1456;51.840;12.184;2023-09-12T03:04:16;17.30;99.90
2893;DHT22;1456;51.840;12.184;2023-09-12T03:06:44;17.30;99.90
2893;DHT22;1456;51.840;12.184;2023-09-12T03:09:10;17.30;99.90
2893;DHT22;1456;51.840;12.184;2023-09-12T03:11:42;17.30;99.90
2893;DHT22;1456;51.840;12.184;2023-09-12T03:14:10;17.20;99.90
2893;DHT22;1456;51.840;12.184;2023-09-12T03:16:38;17.20;99.90
2893;DHT22;1456;51.840;12.184;2023-09-12T03:19:04;17.20;99.90
2893;DHT22;1456;51.840;12.184;2023-09-12T03:21:33;17.10;99.90
2893;DHT22;1456;51.840;12.184;2023-09-12T03:23:59;16.90;99.90
2893;DHT22;1456;51.840;12.184;2023-09-12T03:26:25;16.90;99.90
2893;DHT22;1456;51.840;12.184;2023-09-12T03:28:50;16.90;99.90
2893;DHT22;1456;51.840;12.184;2023-09-12T03:31:19;16.90;99.90
2893;DHT22;1456;51.840;12.184;2023-09-12T03:33:44;16.90;99.90
2893;DHT22;1456;51.840;12.184;2023-09-12T03:36:16;16.90;99.90
2893;DHT22;1456;51.840;12.184;2023-09-12T03:38:42;16.90;99.90
2893;DHT22;1456;51.840;12.184;2023-09-12T03:41:08;16.80;99.90
2893;DHT22;1456;51.840;12.184;2023-09-12T03:43:35;16.90;99.90
2893;DHT22;1456;51.840;12.184;2023-09-12T03:46:00;16.90;99.90
2893;DHT22;1456;51.840;12.184;2023-09-12T03:48:26;16.90;99.90
2893;DHT22;1456;51.840;12.184;2023-09-12T03:50:53;16.90;99.90
2893;DHT22;1456;51.840;12.184;2023-09-12T03:53:18;16.90;99.90
2893;DHT22;1456;51.840;12.184;2023-09-12T03:55:46;17.00;99.90
2893;DHT22;1456;51.840;12.184;2023-09-12T03:58:13;16.90;99.90
2893;DHT22;1456;51.840;12.184;2023-09-12T04:00:39;17.00;99.90
2893;DHT22;1456;51.840;12.184;2023-09-12T04:03:04;17.00;99.90
2893;DHT22;1456;51.840;12.184;2023-09-12T04:05:32;17.00;99.90
2893;DHT22;1456;51.840;12.184;2023-09-12T04:07:58;17.00;99.90
2893;DHT22;1456;51.840;12.184;2023-09-12T04:10:23;17.00;99.90
2893;DHT22;1456;51.840;12.184;2023-09-12T04:12:49;17.00;99.90
2893;DHT22;1456;51.840;12.184;2023-09-12T04:15:18;17.00;99.90
2893;DHT22;1456;51.840;12.184;2023-09-12T04:17:43;17.00;99.90
2893;DHT22;1456;51.840;12.184;2023-09-12T04:20:13;17.00;99.90
2893;DHT22;1456;51.840;12.184;2023-09-12T04:22:43;17.10;99.90
2893;DHT22;1456;51.840;12.184;2023-09-12T04:25:09;17.10;99.90
2893;DHT22;1456;51.840;12.184;2023-09-12T04:27:35;17.00;99.90
2893;DHT22;1456;51.840;12.184;2023-09-12T04:30:03;17.00;99.90
2893;DHT22;1456;51.840;12.184;2023-09-12T04:32:31;17.00;99.90
2893;DHT22;1456;51.840;12.184;2023-09-12T04:34:58;17.00;99.90
2893;DHT22;1456;51.840;12.184;2023-09-12T04:37:23;17.00;99.90
2893;DHT22;1456;51.840;12.184;2023-09-12T04:39:49;17.00;99.90
2893;DHT22;1456;51.840;12.184;2023-09-12T04:42:16;17.00;99.90
2893;DHT22;1456;51.840;12.184;2023-09-12T04:44:41;17.00;99.90
2893;DHT22;1456;51.840;12.184;2023-09-12T04:47:08;16.90;99.90
2893;DHT22;1456;51.840;12.184;2023-09-12T04:49:34;16.90;99.90
2893;DHT22;1456;51.840;12.184;2023-09-12T04:52:00;16.80;99.90
2893;DHT22;1456;51.840;12.184;2023-09-12T04:54:26;16.80;99.90
2893;DHT22;1456;51.840;12.184;2023-09-12T04:56:52;16.80;99.90
2893;DHT22;1456;51.840;12.184;2023-09-12T04:59:20;16.90;99.90
2893;DHT22;1456;51.840;12.184;2023-09-12T05:01:47;17.00;99.90
2893;DHT22;1456;51.840;12.184;2023-09-12T05:04:13;16.90;99.90
2893;DHT22;1456;51.840;12.184;2023-09-12T05:06:42;16.90;99.90
2893;DHT22;1456;51.840;12.184;2023-09-12T05:09:11;16.90;99.90
2893;DHT22;1456;51.840;12.184;2023-09-12T05:11:37;16.90;99.90
2893;DHT22;1456;51.840;12.184;2023-09-12T05:14:04;17.00;99.90
2893;DHT22;1456;51.840;12.184;2023-09-12T05:16:31;17.10;99.90
2893;DHT22;1456;51.840;12.184;2023-09-12T05:18:56;17.20;99.90
2893;DHT22;1456;51.840;12.184;2023-09-12T05:21:22;17.30;99.90
2893;DHT22;1456;51.840;12.184;2023-09-12T05:23:48;17.40;99.90
2893;DHT22;1456;51.840;12.184;2023-09-12T05:26:13;17.50;99.90
2893;DHT22;1456;51.840;12.184;2023-09-12T05:28:41;17.50;99.90
2893;DHT22;1456;51.840;12.184;2023-09-12T05:31:06;17.40;99.90
2893;DHT22;1456;51.840;12.184;2023-09-12T05:33:35;17.40;99.90
2893;DHT22;1456;51.840;12.184;2023-09-12T05:36:04;17.40;99.90
2893;DHT22;1456;51.840;12.184;2023-09-12T05:38:30;17.40;99.90
2893;DHT22;1456;51.840;12.184;2023-09-12T05:40:56;17.50;99.90
2893;DHT22;1456;51.840;12.184;2023-09-12T05:43:22;17.70;99.90
2893;DHT22;1456;51.840;12.184;2023-09-12T05:45:48;17.80;99.90
2893;DHT22;1456;51.840;12.184;2023-09-12T05:48:13;17.90;99.90
2893;DHT22;1456;51.840;12.184;2023-09-12T05:50:40;18.00;99.90
2893;DHT22;1456;51.840;12.184;2023-09-12T05:53:08;18.10;99.90
2893;DHT22;1456;51.840;12.184;2023-09-12T05:55:33;18.30;99.90
2893;DHT22;1456;51.840;12.184;2023-09-12T05:57:59;18.50;99.90
2893;DHT22;1456;51.840;12.184;2023-09-12T06:00:25;18.70;99.90
2893;DHT22;1456;51.840;12.184;2023-09-12T06:02:51;18.70;99.90
2893;DHT22;1456;51.840;12.184;2023-09-12T06:05:17;18.90;99.90
2893;DHT22;1456;51.840;12.184;2023-09-12T06:07:44;19.10;99.90
2893;DHT22;1456;51.840;12.184;2023-09-12T06:10:25;19.30;99.90
2893;DHT22;1456;51.840;12.184;2023-09-12T06:12:52;19.50;99.90
2893;DHT22;1456;51.840;12.184;2023-09-12T06:15:17;19.50;99.90
2893;DHT22;1456;51.840;12.184;2023-09-12T06:17:43;19.30;99.90
2893;DHT22;1456;51.840;12.184;2023-09-12T06:20:17;19.00;99.90
2893;DHT22;1456;51.840;12.184;2023-09-12T06:22:50;18.70;99.90
2893;DHT22;1456;51.840;12.184;2023-09-12T06:25:18;18.90;99.90
2893;DHT22;1456;51.840;12.184;2023-09-12T06:27:45;19.20;99.90
2893;DHT22;1456;51.840;12.184;2023-09-12T06:30:12;19.30;99.90
2893;DHT22;1456;51.840;12.184;2023-09-12T06:32:40;19.30;99.90
2893;DHT22;1456;51.840;12.184;2023-09-12T06:35:11;19.40;99.90
2893;DHT22;1456;51.840;12.184;2023-09-12T06:37:44;19.50;99.90
2893;DHT22;1456;51.840;12.184;2023-09-12T06:40:16;19.60;99.90
2893;DHT22;1456;51.840;12.184;2023-09-12T06:42:43;19.80;99.90
2893;DHT22;1456;51.840;12.184;2023-09-12T06:45:09;20.00;99.90
2893;DHT22;1456;51.840;12.184;2023-09-12T06:47:35;20.20;99.90
2893;DHT22;1456;51.840;12.184;2023-09-12T06:50:03;20.40;99.90
2893;DHT22;1456;51.840;12.184;2023-09-12T06:52:28;20.60;99.90
2893;DHT22;1456;51.840;12.184;2023-09-12T06:54:55;20.70;99.90
2893;DHT22;1456;51.840;12.184;2023-09-12T06:57:20;20.80;99.90
2893;DHT22;1456;51.840;12.184;2023-09-12T06:59:46;20.90;99.90
2893;DHT22;1456;51.840;12.184;2023-09-12T07:02:14;21.00;99.90
2893;DHT22;1456;51.840;12.184;2023-09-12T07:04:40;21.30;99.90
2893;DHT22;1456;51.840;12.184;2023-09-12T07:07:06;21.40;99.90
2893;DHT22;1456;51.840;12.184;2023-09-12T07:09:40;21.50;99.90
2893;DHT22;1456;51.840;12.184;2023-09-12T07:12:15;21.50;99.90
2893;DHT22;1456;51.840;12.184;2023-09-12T07:14:58;21.50;99.90
2893;DHT22;1456;51.840;12.184;2023-09-12T07:17:24;21.50;99.90
2893;DHT22;1456;51.840;12.184;2023-09-12T07:19:49;21.60;99.90
2893;DHT22;1456;51.840;12.184;2023-09-12T07:22:16;21.60;99.90
2893;DHT22;1456;51.840;12.184;2023-09-12T07:24:42;21.70;99.90
2893;DHT22;1456;51.840;12.184;2023-09-12T07:27:16;21.70;99.90
2893;DHT22;1456;51.840;12.184;2023-09-12T07:29:41;21.90;99.90
2893;DHT22;1456;51.840;12.184;2023-09-12T07:32:11;22.10;99.90
2893;DHT22;1456;51.840;12.184;2023-09-12T07:34:38;22.20;99.90
2893;DHT22;1456;51.840;12.184;2023-09-12T07:37:04;22.50;99.90
2893;DHT22;1456;51.840;12.184;2023-09-12T07:39:30;22.70;99.90
2893;DHT22;1456;51.840;12.184;2023-09-12T07:42:00;22.90;99.90
2893;DHT22;1456;51.840;12.184;2023-09-12T07:44:28;23.00;99.90
2893;DHT22;1456;51.840;12.184;2023-09-12T07:46:54;23.10;99.90
2893;DHT22;1456;51.840;12.184;2023-09-12T07:49:22;23.20;99.90
2893;DHT22;1456;51.840;12.184;2023-09-12T07:51:49;23.30;99.90
2893;DHT22;1456;51.840;12.184;2023-09-12T07:54:15;23.40;99.90
2893;DHT22;1456;51.840;12.184;2023-09-12T07:56:45;23.40;99.90
2893;DHT22;1456;51.840;12.184;2023-09-12T07:59:10;23.60;99.90
2893;DHT22;1456;51.840;12.184;2023-09-12T08:01:38;23.70;99.90
2893;DHT22;1456;51.840;12.184;2023-09-12T08:04:04;23.90;99.90
2893;DHT22;1456;51.840;12.184;2023-09-12T08:06:30;24.00;99.90
2893;DHT22;1456;51.840;12.184;2023-09-12T08:08:59;24.10;99.90
2893;DHT22;1456;51.840;12.184;2023-09-12T08:11:26;24.30;99.90
2893;DHT22;1456;51.840;12.184;2023-09-12T08:13:52;24.30;99.90
2893;DHT22;1456;51.840;12.184;2023-09-12T08:16:22;24.40;99.90
2893;DHT22;1456;51.840;12.184;2023-09-12T08:18:47;24.50;99.90
2893;DHT22;1456;51.840;12.184;2023-09-12T08:21:13;24.50;99.90
2893;DHT22;1456;51.840;12.184;2023-09-12T08:23:39;24.50;99.90
2893;DHT22;1456;51.840;12.184;2023-09-12T08:26:05;24.50;99.90
2893;DHT22;1456;51.840;12.184;2023-09-12T08:28:30;24.60;99.90
2893;DHT22;1456;51.840;12.184;2023-09-12T08:30:56;24.60;99.90
2893;DHT22;1456;51.840;12.184;2023-09-12T08:33:22;24.70;99.90
2893;DHT22;1456;51.840;12.184;2023-09-12T08:35:49;24.90;99.90
2893;DHT22;1456;51.840;12.184;2023-09-12T08:38:22;25.10;99.90
2893;DHT22;1456;51.840;12.184;2023-09-12T08:40:51;25.20;99.90
2893;DHT22;1456;51.840;12.184;2023-09-12T08:43:18;25.30;99.90
2893;DHT22;1456;51.840;12.184;2023-09-12T08:45:43;25.30;99.90
2893;DHT22;1456;51.840;12.184;2023-09-12T08:48:11;25.30;99.90
2893;DHT22;1456;51.840;12.184;2023-09-12T08:50:36;25.50;99.90
2893;DHT22;1456;51.840;12.184;2023-09-12T08:53:04;25.60;99.90
2893;DHT22;1456;51.840;12.184;2023-09-12T08:55:32;25.80;99.90
2893;DHT22;1456;51.840;12.184;2023-09-12T08:58:03;26.00;99.90
2893;DHT22;1456;51.840;12.184;2023-09-12T09:00:29;26.00;99.90
2893;DHT22;1456;51.840;12.184;2023-09-12T09:02:55;25.90;99.90
2893;DHT22;1456;51.840;12.184;2023-09-12T09:05:22;25.80;99.90
2893;DHT22;1456;51.840;12.184;2023-09-12T09:07:52;26.00;99.90
2893;DHT22;1456;51.840;12.184;2023-09-12T09:10:19;26.30;99.90
2893;DHT22;1456;51.840;12.184;2023-09-12T09:12:51;26.40;99.90
2893;DHT22;1456;51.840;12.184;2023-09-12T09:15:26;26.50;99.90
2893;DHT22;1456;51.840;12.184;2023-09-12T09:17:58;26.70;99.90
2893;DHT22;1456;51.840;12.184;2023-09-12T09:20:34;27.00;99.90
2893;DHT22;1456;51.840;12.184;2023-09-12T09:23:09;27.40;99.90
2893;DHT22;1456;51.840;12.184;2023-09-12T09:25:39;27.70;99.90
2893;DHT22;1456;51.840;12.184;2023-09-12T09:28:05;28.00;99.90
2893;DHT22;1456;51.840;12.184;2023-09-12T09:30:46;27.90;99.10
2893;DHT22;1456;51.840;12.184;2023-09-12T09:33:19;27.70;98.00
2893;DHT22;1456;51.840;12.184;2023-09-12T09:35:48;27.50;98.80
2893;DHT22;1456;51.840;12.184;2023-09-12T09:38:14;27.60;98.20
2893;DHT22;1456;51.840;12.184;2023-09-12T09:40:42;27.40;98.00
2893;DHT22;1456;51.840;12.184;2023-09-12T09:43:09;27.40;98.00
2893;DHT22;1456;51.840;12.184;2023-09-12T09:45:44;27.50;98.40
2893;DHT22;1456;51.840;12.184;2023-09-12T09:48:23;27.70;97.90
2893;DHT22;1456;51.840;12.184;2023-09-12T09:50:49;28.00;98.10
2893;DHT22;1456;51.840;12.184;2023-09-12T09:53:17;28.20;97.20
2893;DHT22;1456;51.840;12.184;2023-09-12T09:55:48;28.20;98.00
2893;DHT22;1456;51.840;12.184;2023-09-12T09:58:17;28.40;97.50
2893;DHT22;1456;51.840;12.184;2023-09-12T10:00:43;28.70;97.90
2893;DHT22;1456;51.840;12.184;2023-09-12T10:03:10;28.70;96.90
2893;DHT22;1456;51.840;12.184;2023-09-12T10:05:37;28.80;96.60
2893;DHT22;1456;51.840;12.184;2023-09-12T10:08:06;29.00;97.50
2893;DHT22;1456;51.840;12.184;2023-09-12T10:10:34;29.20;96.20
2893;DHT22;1456;51.840;12.184;2023-09-12T10:13:03;29.50;95.70
2893;DHT22;1456;51.840;12.184;2023-09-12T10:15:30;30.00;94.70
2893;DHT22;1456;51.840;12.184;2023-09-12T10:18:02;30.20;94.30
2893;DHT22;1456;51.840;12.184;2023-09-12T10:20:42;30.50;95.20
2893;DHT22;1456;51.840;12.184;2023-09-12T10:23:17;30.60;93.70
2893;DHT22;1456;51.840;12.184;2023-09-12T10:25:45;30.70;94.20
2893;DHT22;1456;51.840;12.184;2023-09-12T10:28:12;30.80;93.60
2893;DHT22;1456;51.840;12.184;2023-09-12T10:30:38;31.00;94.00
2893;DHT22;1456;51.840;12.184;2023-09-12T10:33:04;31.30;94.60
2893;DHT22;1456;51.840;12.184;2023-09-12T10:35:31;31.60;93.90
2893;DHT22;1456;51.840;12.184;2023-09-12T10:38:00;32.40;93.80
2893;DHT22;1456;51.840;12.184;2023-09-12T10:40:29;32.60;91.80
2893;DHT22;1456;51.840;12.184;2023-09-12T10:42:57;32.70;92.00
2893;DHT22;1456;51.840;12.184;2023-09-12T10:45:26;33.00;92.20
2893;DHT22;1456;51.840;12.184;2023-09-12T10:47:52;32.80;90.80
2893;DHT22;1456;51.840;12.184;2023-09-12T10:50:19;33.20;91.30
2893;DHT22;1456;51.840;12.184;2023-09-12T10:52:44;33.60;89.70
2893;DHT22;1456;51.840;12.184;2023-09-12T10:55:15;34.00;89.00
2893;DHT22;1456;51.840;12.184;2023-09-12T10:58:01;34.10;89.90
2893;DHT22;1456;51.840;12.184;2023-09-12T11:00:29;34.40;87.60
2893;DHT22;1456;51.840;12.184;2023-09-12T11:03:35;33.40;88.80
2893;DHT22;1456;51.840;12.184;2023-09-12T11:05:52;33.60;89.50
2893;DHT22;1456;51.840;12.184;2023-09-12T11:08:21;33.80;89.00
2893;DHT22;1456;51.840;12.184;2023-09-12T11:13:38;35.00;85.80
2893;DHT22;1456;51.840;12.184;2023-09-12T11:21:41;37.70;78.40
2893;DHT22;1456;51.840;12.184;2023-09-12T11:24:07;37.30;78.60
2893;DHT22;1456;51.840;12.184;2023-09-12T11:26:33;37.30;76.60
2893;DHT22;1456;51.840;12.184;2023-09-12T11:29:10;37.40;74.70
2893;DHT22;1456;51.840;12.184;2023-09-12T11:31:36;37.30;77.20
2893;DHT22;1456;51.840;12.184;2023-09-12T11:34:04;37.30;77.10
2893;DHT22;1456;51.840;12.184;2023-09-12T11:36:37;37.60;76.90
2893;DHT22;1456;51.840;12.184;2023-09-12T11:39:02;37.60;74.80
2893;DHT22;1456;51.840;12.184;2023-09-12T11:41:47;38.50;75.90
2893;DHT22;1456;51.840;12.184;2023-09-12T11:44:13;38.70;73.10
2893;DHT22;1456;51.840;12.184;2023-09-12T11:46:40;38.90;72.90
2893;DHT22;1456;51.840;12.184;2023-09-12T11:49:08;39.50;71.60
2893;DHT22;1456;51.840;12.184;2023-09-12T11:51:34;39.90;71.60
2893;DHT22;1456;51.840;12.184;2023-09-12T11:54:00;39.20;67.80
2893;DHT22;1456;51.840;12.184;2023-09-12T11:56:26;38.50;69.60
2893;DHT22;1456;51.840;12.184;2023-09-12T11:58:55;37.10;67.40
2893;DHT22;1456;51.840;12.184;2023-09-12T12:01:20;36.00;70.00
2893;DHT22;1456;51.840;12.184;2023-09-12T12:03:47;35.20;73.20
2893;DHT22;1456;51.840;12.184;2023-09-12T12:06:18;34.60;73.80
2893;DHT22;1456;51.840;12.184;2023-09-12T12:08:44;34.30;74.20
2893;DHT22;1456;51.840;12.184;2023-09-12T12:11:11;33.70;75.00
2893;DHT22;1456;51.840;12.184;2023-09-12T12:13:36;33.60;78.00
2893;DHT22;1456;51.840;12.184;2023-09-12T12:16:13;33.50;78.10
2893;DHT22;1456;51.840;12.184;2023-09-12T12:18:39;33.70;77.20
2893;DHT22;1456;51.840;12.184;2023-09-12T12:21:05;34.00;76.90
2893;DHT22;1456;51.840;12.184;2023-09-12T12:23:30;34.00;78.40
2893;DHT22;1456;51.840;12.184;2023-09-12T12:26:02;34.00;79.60
2893;DHT22;1456;51.840;12.184;2023-09-12T12:28:30;34.10;75.60
2893;DHT22;1456;51.840;12.184;2023-09-12T12:30:55;34.10;77.60
2893;DHT22;1456;51.840;12.184;2023-09-12T12:33:21;34.60;77.10
2893;DHT22;1456;51.840;12.184;2023-09-12T12:35:47;35.70;75.20
2893;DHT22;1456;51.840;12.184;2023-09-12T12:38:14;36.60;71.60
2893;DHT22;1456;51.840;12.184;2023-09-12T12:40:40;37.10;75.20
2893;DHT22;1456;51.840;12.184;2023-09-12T12:43:06;37.40;73.00
2893;DHT22;1456;51.840;12.184;2023-09-12T12:45:41;37.60;72.60
2893;DHT22;1456;51.840;12.184;2023-09-12T12:48:17;38.10;69.70
2893;DHT22;1456;51.840;12.184;2023-09-12T12:50:54;39.00;71.50
2893;DHT22;1456;51.840;12.184;2023-09-12T12:53:36;39.60;66.60
2893;DHT22;1456;51.840;12.184;2023-09-12T12:56:03;40.00;66.60
2893;DHT22;1456;51.840;12.184;2023-09-12T12:58:30;40.80;67.70
2893;DHT22;1456;51.840;12.184;2023-09-12T13:00:56;41.30;66.20
2893;DHT22;1456;51.840;12.184;2023-09-12T13:03:21;41.80;62.10
2893;DHT22;1456;51.840;12.184;2023-09-12T13:05:53;42.10;61.80
2893;DHT22;1456;51.840;12.184;2023-09-12T13:08:19;41.80;61.80
2893;DHT22;1456;51.840;12.184;2023-09-12T13:10:47;41.20;58.30
2893;DHT22;1456;51.840;12.184;2023-09-12T13:13:14;40.30;63.40
2893;DHT22;1456;51.840;12.184;2023-09-12T13:15:40;41.10;63.10
2893;DHT22;1456;51.840;12.184;2023-09-12T13:18:05;41.10;59.30
2893;DHT22;1456;51.840;12.184;2023-09-12T13:20:36;42.70;61.20
2893;DHT22;1456;51.840;12.184;2023-09-12T13:23:02;42.70;58.70
2893;DHT22;1456;51.840;12.184;2023-09-12T13:25:27;42.60;60.00
2893;DHT22;1456;51.840;12.184;2023-09-12T13:27:53;42.30;58.10
2893;DHT22;1456;51.840;12.184;2023-09-12T13:30:19;41.90;59.50
2893;DHT22;1456;51.840;12.184;2023-09-12T13:32:46;41.80;57.30
2893;DHT22;1456;51.840;12.184;2023-09-12T13:37:44;45.20;56.30
2893;DHT22;1456;51.840;12.184;2023-09-12T13:40:09;45.40;53.20
2893;DHT22;1456;51.840;12.184;2023-09-12T13:42:35;45.20;52.80
2893;DHT22;1456;51.840;12.184;2023-09-12T13:45:00;45.00;51.20
2893;DHT22;1456;51.840;12.184;2023-09-12T13:47:26;43.10;52.00
2893;DHT22;1456;51.840;12.184;2023-09-12T13:49:52;42.00;52.70
2893;DHT22;1456;51.840;12.184;2023-09-12T13:52:21;41.60;52.70
2893;DHT22;1456;51.840;12.184;2023-09-12T13:54:46;42.10;54.30
2893;DHT22;1456;51.840;12.184;2023-09-12T13:57:19;43.00;52.30
2893;DHT22;1456;51.840;12.184;2023-09-12T13:59:44;42.50;51.80
2893;DHT22;1456;51.840;12.184;2023-09-12T14:02:10;41.30;54.70
2893;DHT22;1456;51.840;12.184;2023-09-12T14:04:36;41.80;52.50
2893;DHT22;1456;51.840;12.184;2023-09-12T14:07:01;42.30;53.00
2893;DHT22;1456;51.840;12.184;2023-09-12T14:09:28;42.90;54.20
2893;DHT22;1456;51.840;12.184;2023-09-12T14:11:53;43.40;52.40
2893;DHT22;1456;51.840;12.184;2023-09-12T14:14:19;43.00;51.60
2893;DHT22;1456;51.840;12.184;2023-09-12T14:16:45;42.90;52.40
2893;DHT22;1456;51.840;12.184;2023-09-12T14:21:39;43.70;50.40
2893;DHT22;1456;51.840;12.184;2023-09-12T14:24:05;42.40;50.90
2893;DHT22;1456;51.840;12.184;2023-09-12T14:26:32;40.90;52.00
2893;DHT22;1456;51.840;12.184;2023-09-12T14:31:47;38.80;51.90
2893;DHT22;1456;51.840;12.184;2023-09-12T14:36:46;38.40;53.20
2893;DHT22;1456;51.840;12.184;2023-09-12T14:39:12;38.60;52.80
2893;DHT22;1456;51.840;12.184;2023-09-12T14:41:41;38.50;52.70
2893;DHT22;1456;51.840;12.184;2023-09-12T14:44:07;38.80;54.30
2893;DHT22;1456;51.840;12.184;2023-09-12T14:46:33;38.90;54.00
2893;DHT22;1456;51.840;12.184;2023-09-12T14:48:58;39.00;54.10
2893;DHT22;1456;51.840;12.184;2023-09-12T14:51:26;38.60;54.50
2893;DHT22;1456;51.840;12.184;2023-09-12T14:53:54;37.50;54.00
2893;DHT22;1456;51.840;12.184;2023-09-12T14:56:21;36.10;55.20
2893;DHT22;1456;51.840;12.184;2023-09-12T14:58:48;34.90;55.90
2893;DHT22;1456;51.840;12.184;2023-09-12T15:01:14;33.90;57.90
2893;DHT22;1456;51.840;12.184;2023-09-12T15:03:39;33.60;59.30
2893;DHT22;1456;51.840;12.184;2023-09-12T15:06:05;33.30;60.50
2893;DHT22;1456;51.840;12.184;2023-09-12T15:08:38;33.00;61.90
2893;DHT22;1456;51.840;12.184;2023-09-12T15:11:04;32.50;62.10
2893;DHT22;1456;51.840;12.184;2023-09-12T15:13:30;32.40;63.80
2893;DHT22;1456;51.840;12.184;2023-09-12T15:15:56;32.00;62.80
2893;DHT22;1456;51.840;12.184;2023-09-12T15:18:22;31.80;64.20
2893;DHT22;1456;51.840;12.184;2023-09-12T15:20:51;31.60;64.30
2893;DHT22;1456;51.840;12.184;2023-09-12T15:23:17;31.40;67.00
2893;DHT22;1456;51.840;12.184;2023-09-12T15:25:51;31.20;68.80
2893;DHT22;1456;51.840;12.184;2023-09-12T15:28:23;31.10;69.60
2893;DHT22;1456;51.840;12.184;2023-09-12T15:30:48;31.20;70.30
2893;DHT22;1456;51.840;12.184;2023-09-12T15:33:15;31.10;72.00
2893;DHT22;1456;51.840;12.184;2023-09-12T15:35:40;31.20;72.30
2893;DHT22;1456;51.840;12.184;2023-09-12T15:38:07;31.20;72.70
2893;DHT22;1456;51.840;12.184;2023-09-12T15:40:33;31.10;74.30
2893;DHT22;1456;51.840;12.184;2023-09-12T15:42:59;31.10;74.70
2893;DHT22;1456;51.840;12.184;2023-09-12T15:48:15;30.70;78.50
2893;DHT22;1456;51.840;12.184;2023-09-12T15:50:40;30.70;77.80
2893;DHT22;1456;51.840;12.184;2023-09-12T15:53:08;30.70;78.10
2893;DHT22;1456;51.840;12.184;2023-09-12T15:55:34;30.40;78.60
2893;DHT22;1456;51.840;12.184;2023-09-12T15:58:00;30.30;80.50
2893;DHT22;1456;51.840;12.184;2023-09-12T16:00:28;30.20;80.60
2893;DHT22;1456;51.840;12.184;2023-09-12T16:02:55;30.10;81.30
2893;DHT22;1456;51.840;12.184;2023-09-12T16:05:21;29.90;82.30
2893;DHT22;1456;51.840;12.184;2023-09-12T16:07:46;29.90;82.00
2893;DHT22;1456;51.840;12.184;2023-09-12T16:10:12;29.70;84.50
2893;DHT22;1456;51.840;12.184;2023-09-12T16:12:41;29.70;83.70